Time;durP1;ratioP1;P1;durP2;ratioP2;P2;SDS_P1;SDS_P2;PMS_P1;PMS_P2;Temp;Humidity;BMP_temperature;BMP_pressure;BME280_temperature;BME280_humidity;BME280_pressure;Samples;Min_cycle;Max_cycle;Signal;HPM_P1;HPM_P2
2021/10/13 00:01:34;;;;;;;5.97;5.35;;;;;;;;;;6177885;28;20026;-82
2021/10/13 00:04:34;;;;;;;7.25;5.75;;;9.20;99.90;;;;;;6194282;28;20022;-82
2021/10/13 00:07:35;;;;;;;6.47;5.50;;;9.30;99.90;;;;;;6178079;28;20030;-82
2021/10/13 00:10:36;;;;;;;7.47;4.95;;;9.30;99.90;;;;;;6193974;28;20026;-82
2021/10/13 00:13:37;;;;;;;6.40;5.22;;;;;;;;;;6194215;28;20049;-82
2021/10/13 00:16:38;;;;;;;8.15;5.68;;;9.40;99.90;;;;;;6194035;28;20101;-82
2021/10/13 00:19:38;;;;;;;9.15;6.90;;;9.20;99.90;;;;;;6161455;28;20027;-82
2021/10/13 00:22:39;;;;;;;6.30;5.70;;;9.20;99.90;;;;;;6177866;28;20038;-84
2021/10/13 00:25:40;;;;;;;6.55;5.85;;;9.20;99.90;;;;;;6193930;28;20030;-82
2021/10/13 00:28:40;;;;;;;7.10;6.38;;;9.30;99.90;;;;;;6194595;28;20082;-82
2021/10/13 00:31:41;;;;;;;7.30;6.18;;;9.40;99.90;;;;;;6177553;28;20079;-81
2021/10/13 00:34:42;;;;;;;8.20;6.90;;;;;;;;;;6195329;28;20416;-82
2021/10/13 00:37:42;;;;;;;9.82;8.05;;;9.10;99.90;;;;;;6177469;28;20065;-82
2021/10/13 00:40:43;;;;;;;8.38;7.47;;;;;;;;;;6193707;28;20030;-82
2021/10/13 00:43:44;;;;;;;8.63;7.30;;;;;;;;;;6192966;28;20531;-82
2021/10/13 00:46:45;;;;;;;10.80;7.60;;;9.50;99.90;;;;;;6193328;28;20026;-82
2021/10/13 00:49:46;;;;;;;9.48;8.48;;;9.50;99.90;;;;;;6193153;28;20018;-82
2021/10/13 00:52:46;;;;;;;10.10;9.10;;;9.40;99.90;;;;;;6192979;28;20042;-82
2021/10/13 00:55:47;;;;;;;10.07;7.82;;;;;;;;;;6176763;28;20040;-82
2021/10/13 00:58:48;;;;;;;9.88;8.18;;;;;;;;;;6176797;28;20198;-82
2021/10/13 01:01:49;;;;;;;10.13;9.02;;;;;;;;;;6177057;28;20037;-82
2021/10/13 01:05:10;;;;;;;11.23;9.23;;;9.30;99.90;;;;;;6194311;28;20037;-81
2021/10/13 01:08:15;;;;;;;10.82;8.82;;;9.30;99.90;;;;;;6175826;28;20049;-82
2021/10/13 01:11:15;;;;;;;11.77;9.13;;;9.40;99.90;;;;;;6177051;28;20031;-82
2021/10/13 01:14:22;;;;;;;11.57;9.52;;;8.10;99.90;;;;;;6199576;28;20121;-81
2021/10/13 01:17:33;;;;;;;18.10;9.60;;;8.90;99.90;;;;;;6181441;28;20372;-82
2021/10/13 01:20:49;;;;;;;12.73;9.73;;;9.30;99.90;;;;;;6182000;28;20030;-83
2021/10/13 01:24:23;;;;;;;12.25;9.23;;;9.20;99.90;;;;;;6199065;28;20031;-82
2021/10/13 01:28:02;;;;;;;12.73;9.55;;;9.10;99.90;;;;;;6199502;28;20022;-82
2021/10/13 01:31:25;;;;;;;10.55;9.30;;;9.20;99.90;;;;;;6092727;29;20024;-82
2021/10/13 01:34:27;;;;;;;13.50;10.25;;;;;;;;;;6124080;29;20631;-82
2021/10/13 01:37:30;;;;;;;12.43;9.40;;;9.10;99.90;;;;;;6123836;29;20031;-82
2021/10/13 01:40:31;;;;;;;11.20;9.23;;;8.90;99.90;;;;;;6123840;29;20051;-82
2021/10/13 01:43:35;;;;;;;14.20;10.25;;;8.90;99.90;;;;;;6123197;29;20047;-81
2021/10/13 01:46:35;;;;;;;11.27;9.25;;;8.90;99.90;;;;;;6092175;29;20044;-82
2021/10/13 01:49:36;;;;;;;10.68;9.52;;;9.10;99.90;;;;;;6107572;29;20067;-82
2021/10/13 01:52:37;;;;;;;12.65;10.25;;;;;;;;;;6123444;29;20036;-81
2021/10/13 01:55:37;;;;;;;12.95;10.07;;;8.80;99.90;;;;;;6123549;29;20038;-81
2021/10/13 01:58:38;;;;;;;17.42;10.52;;;8.60;99.90;;;;;;6123256;29;20219;-82
2021/10/13 02:01:39;;;;;;;11.90;10.70;;;8.90;99.90;;;;;;6123060;29;20031;-82
2021/10/13 02:04:41;;;;;;;16.05;10.75;;;8.50;99.90;;;;;;6136216;29;20050;-82
2021/10/13 02:07:42;;;;;;;17.27;10.68;;;8.50;99.90;;;;;;6149116;28;20083;-82
2021/10/13 02:10:45;;;;;;;13.38;11.65;;;8.60;99.90;;;;;;6149296;28;20513;-82
2021/10/13 02:13:47;;;;;;;12.35;10.65;;;8.40;99.90;;;;;;6148473;29;20028;-83
2021/10/13 02:16:49;;;;;;;14.75;11.25;;;8.30;99.90;;;;;;6148858;29;20031;-82
2021/10/13 02:19:50;;;;;;;12.25;10.70;;;8.40;99.90;;;;;;6148757;28;20465;-82
2021/10/13 02:22:54;;;;;;;14.93;11.32;;;8.50;99.90;;;;;;6149010;28;20042;-81
2021/10/13 02:25:55;;;;;;;14.88;10.88;;;;;;;;;;6148732;29;20031;-81
2021/10/13 02:29:00;;;;;;;12.07;10.63;;;8.40;99.90;;;;;;6132416;29;20406;-82
2021/10/13 02:32:01;;;;;;;14.85;10.82;;;8.20;99.90;;;;;;6133049;29;20035;-82
2021/10/13 02:35:03;;;;;;;12.52;11.23;;;8.40;99.90;;;;;;6149693;29;20062;-82
2021/10/13 02:38:04;;;;;;;12.48;11.18;;;;;;;;;;6148631;28;20444;-82
2021/10/13 02:41:05;;;;;;;14.05;10.77;;;8.30;99.90;;;;;;6148052;29;20027;-82
2021/10/13 02:44:06;;;;;;;15.00;11.60;;;8.00;99.90;;;;;;6171997;28;20589;-83
2021/10/13 02:47:38;;;;;;;12.50;11.10;;;8.20;99.90;;;;;;6196529;28;20117;-82
2021/10/13 02:51:08;;;;;;;12.47;11.17;;;8.20;99.90;;;;;;6174912;28;20125;-83
2021/10/13 02:54:14;;;;;;;13.93;10.88;;;7.90;99.90;;;;;;6179742;28;20031;-83
2021/10/13 02:57:14;;;;;;;15.02;12.30;;;8.30;99.90;;;;;;6195787;28;20030;-82
2021/10/13 03:00:15;;;;;;;15.38;10.73;;;;;;;;;;6195566;28;20365;-82
2021/10/13 03:03:20;;;;;;;15.05;13.45;;;8.00;99.90;;;;;;6196341;28;20026;-82
2021/10/13 03:06:21;;;;;;;14.18;10.95;;;;;;;;;;6179074;28;20035;-82
2021/10/13 03:09:21;;;;;;;10.40;9.27;;;7.80;99.90;;;;;;6195475;28;20057;-82
2021/10/13 03:12:23;;;;;;;9.65;7.82;;;7.80;99.90;;;;;;6179026;28;20400;-82
2021/10/13 03:15:25;;;;;;;13.85;9.20;;;7.80;99.90;;;;;;6197150;28;20030;-81
2021/10/13 03:18:26;;;;;;;11.73;7.97;;;8.10;99.90;;;;;;6179376;28;20061;-82
2021/10/13 03:21:27;;;;;;;11.68;9.07;;;7.90;99.90;;;;;;6195239;28;20380;-82
2021/10/13 03:24:28;;;;;;;11.40;9.02;;;;;;;;;;6195350;28;20038;-83
2021/10/13 03:27:28;;;;;;;9.07;8.18;;;7.60;99.90;;;;;;6195312;28;20023;-81
2021/10/13 03:30:30;;;;;;;10.02;8.90;;;7.60;99.90;;;;;;6195323;28;20074;-82
2021/10/13 03:33:32;;;;;;;8.45;7.57;;;7.90;99.90;;;;;;6179029;28;20535;-82
2021/10/13 03:36:40;;;;;;;9.75;7.90;;;7.50;99.90;;;;;;6162517;28;20037;-82
2021/10/13 03:39:41;;;;;;;8.48;7.55;;;7.50;99.90;;;;;;6194377;28;20019;-81
2021/10/13 03:42:42;;;;;;;9.32;8.43;;;;;;;;;;6178717;28;20433;-81
2021/10/13 03:45:43;;;;;;;10.60;8.93;;;7.70;99.90;;;;;;6194673;28;20065;-82
2021/10/13 03:48:44;;;;;;;12.65;9.25;;;7.80;99.90;;;;;;6178740;28;20026;-83
2021/10/13 03:51:44;;;;;;;12.88;10.15;;;8.10;99.90;;;;;;6161988;28;20462;-82
2021/10/13 03:54:45;;;;;;;12.75;10.98;;;;;;;;;;6194668;28;20042;-82
2021/10/13 03:57:46;;;;;;;13.07;11.50;;;;;;;;;;6194696;28;20027;-82
2021/10/13 04:00:47;;;;;;;11.40;9.85;;;8.10;99.90;;;;;;6194347;28;20045;-82
2021/10/13 04:03:48;;;;;;;12.88;10.25;;;;;;;;;;6194293;28;20050;-82
2021/10/13 04:06:49;;;;;;;13.93;10.05;;;8.10;99.90;;;;;;6194059;28;20868;-82
2021/10/13 04:09:50;;;;;;;13.07;10.30;;;;;;;;;;6177864;28;20030;-82
2021/10/13 04:12:50;;;;;;;12.50;10.30;;;7.80;99.90;;;;;;6177871;28;20801;-82
2021/10/13 04:15:51;;;;;;;11.25;10.15;;;7.90;99.90;;;;;;6177691;28;20153;-80
2021/10/13 04:18:51;;;;;;;13.40;10.27;;;7.80;99.90;;;;;;6194492;28;20027;-81
2021/10/13 04:21:52;;;;;;;11.55;10.23;;;8.20;99.90;;;;;;6177717;28;20027;-82
2021/10/13 04:24:52;;;;;;;13.82;10.40;;;7.80;99.90;;;;;;6177767;28;20423;-82
2021/10/13 04:27:53;;;;;;;15.88;12.77;;;8.10;99.90;;;;;;6193772;28;20451;-82
2021/10/13 04:30:53;;;;;;;27.15;24.17;;;8.10;99.90;;;;;;6177863;28;20022;-81
2021/10/13 04:33:54;;;;;;;13.48;10.52;;;7.90;99.90;;;;;;6192914;28;20117;-82
2021/10/13 04:36:55;;;;;;;13.80;11.88;;;7.80;99.90;;;;;;6193501;28;20664;-82
2021/10/13 04:39:55;;;;;;;12.35;10.32;;;7.90;99.90;;;;;;6178083;28;20041;-84
2021/10/13 04:42:56;;;;;;;11.02;9.93;;;;;;;;;;6176361;28;20041;-84
2021/10/13 04:45:57;;;;;;;11.23;8.68;;;7.60;99.90;;;;;;6176125;28;20369;-87
2021/10/13 04:48:58;;;;;;;10.43;9.32;;;;;;;;;;6160541;28;20027;-85
2021/10/13 04:51:59;;;;;;;14.10;12.68;;;7.50;99.90;;;;;;6176760;28;20130;-85
2021/10/13 04:54:59;;;;;;;14.60;10.85;;;7.50;99.90;;;;;;6176592;28;20572;-83
2021/10/13 04:58:00;;;;;;;12.13;9.23;;;8.20;99.90;;;;;;6176925;28;20073;-83
2021/10/13 05:01:01;;;;;;;11.73;9.48;;;;;;;;;;6176629;28;20471;-83
2021/10/13 05:04:01;;;;;;;13.00;9.85;;;7.30;99.90;;;;;;6176912;28;20027;-82
2021/10/13 05:07:02;;;;;;;18.02;14.30;;;;;;;;;;6176824;28;20033;-81
2021/10/13 05:10:03;;;;;;;21.38;12.70;;;7.40;99.90;;;;;;6193162;28;20483;-82
2021/10/13 05:13:05;;;;;;;11.75;9.23;;;;;;;;;;6192274;28;20047;-83
2021/10/13 05:16:05;;;;;;;9.75;8.75;;;7.40;99.90;;;;;;6193352;28;20449;-85
2021/10/13 05:19:06;;;;;;;11.57;8.45;;;;;;;;;;6176428;28;20026;-83
2021/10/13 05:22:07;;;;;;;10.07;8.52;;;7.30;99.90;;;;;;6176195;28;20022;-84
2021/10/13 05:25:08;;;;;;;11.40;9.70;;;7.30;99.90;;;;;;6176799;28;20061;-83
2021/10/13 05:28:09;;;;;;;13.10;9.95;;;7.10;99.90;;;;;;6176592;28;20085;-82
2021/10/13 05:31:09;;;;;;;13.98;11.20;;;7.40;99.90;;;;;;6176587;28;20392;-83
2021/10/13 05:34:10;;;;;;;13.52;10.05;;;7.40;99.90;;;;;;6175715;28;20145;-82
2021/10/13 05:37:10;;;;;;;14.70;10.98;;;7.00;99.90;;;;;;6193160;28;20349;-79
2021/10/13 05:40:11;;;;;;;11.93;9.60;;;7.00;99.90;;;;;;6193581;28;20027;-82
2021/10/13 05:43:12;;;;;;;11.63;8.98;;;6.80;99.90;;;;;;6175983;28;20052;-85
2021/10/13 05:46:13;;;;;;;16.20;10.77;;;8.30;99.90;;;;;;6176238;28;20042;-84
2021/10/13 05:49:13;;;;;;;14.43;9.25;;;6.80;99.90;;;;;;6176510;28;20556;-82
2021/10/13 05:52:15;;;;;;;9.55;8.30;;;;;;;;;;6176375;28;20125;-82
2021/10/13 05:55:15;;;;;;;13.00;11.63;;;6.70;99.90;;;;;;6176464;28;20449;-82
2021/10/13 05:58:18;;;;;;;10.73;8.32;;;7.20;99.90;;;;;;6195121;28;20027;-81
2021/10/13 06:01:20;;;;;;;13.65;10.20;;;7.10;99.90;;;;;;6196953;28;20014;-83
2021/10/13 06:04:21;;;;;;;11.15;9.70;;;6.60;99.90;;;;;;6181054;28;20547;-85
2021/10/13 06:07:22;;;;;;;10.98;8.43;;;;;;;;;;6195811;28;20039;-84
2021/10/13 06:10:22;;;;;;;10.57;9.20;;;6.50;99.90;;;;;;6181284;28;20088;-84
2021/10/13 06:13:23;;;;;;;9.75;8.40;;;6.50;99.90;;;;;;6164270;28;20034;-84
2021/10/13 06:16:24;;;;;;;10.27;8.68;;;;;;;;;;6164601;28;20030;-83
2021/10/13 06:19:27;;;;;;;13.40;9.85;;;6.80;99.90;;;;;;6196905;28;20435;-84
2021/10/13 06:22:28;;;;;;;10.77;8.75;;;6.70;99.90;;;;;;6180502;28;20034;-84
2021/10/13 06:25:29;;;;;;;10.00;8.40;;;;;;;;;;6180400;28;20034;-84
2021/10/13 06:28:29;;;;;;;11.35;8.23;;;6.60;99.90;;;;;;6180257;28;20033;-84
2021/10/13 06:31:30;;;;;;;10.32;8.43;;;;;;;;;;6196675;28;20030;-85
2021/10/13 06:34:31;;;;;;;9.75;8.65;;;;;;;;;;6180054;28;20030;-83
2021/10/13 06:37:32;;;;;;;9.93;8.55;;;;;;;;;;6180118;28;20038;-84
2021/10/13 06:40:33;;;;;;;9.80;7.85;;;;;;;;;;6196510;28;20459;-84
2021/10/13 06:43:34;;;;;;;10.60;8.77;;;;;;;;;;6195600;28;20050;-84
2021/10/13 06:46:35;;;;;;;9.88;8.82;;;;;;;;;;6179974;28;20062;-83
2021/10/13 06:49:36;;;;;;;10.25;8.85;;;;;;;;;;6197930;28;20448;-84
2021/10/13 06:52:37;;;;;;;8.32;7.53;;;;;;;;;;6179737;28;20058;-84
2021/10/13 06:55:39;;;;;;;7.97;7.18;;;;;;;;;;6195683;28;20045;-84
2021/10/13 06:58:40;;;;;;;8.07;7.28;;;;;;;;;;6196202;28;20524;-83
2021/10/13 07:01:41;;;;;;;8.88;7.10;;;;;;;;;;6195647;28;20085;-85
2021/10/13 07:04:42;;;;;;;10.50;7.25;;;;;;;;;;6179518;28;20375;-84
2021/10/13 07:07:44;;;;;;;7.50;6.80;;;8.50;99.90;;;;;;6195519;28;20489;-84
2021/10/13 07:10:44;;;;;;;8.18;6.85;;;8.60;99.90;;;;;;6178258;28;20125;-83
2021/10/13 07:13:45;;;;;;;9.80;8.80;;;9.10;99.90;;;;;;6178691;28;20387;-84
2021/10/13 07:16:45;;;;;;;8.35;7.35;;;9.90;99.90;;;;;;6179077;28;20117;-84
2021/10/13 07:19:46;;;;;;;8.93;6.57;;;;;;;;;;6179136;28;20026;-84
2021/10/13 07:22:47;;;;;;;11.25;6.97;;;11.10;99.90;;;;;;6178918;28;20734;-84
2021/10/13 07:25:48;;;;;;;8.27;7.38;;;11.50;99.90;;;;;;6195826;28;20368;-84
2021/10/13 07:28:48;;;;;;;7.55;6.70;;;;;;;;;;6195439;28;20064;-84
2021/10/13 07:31:49;;;;;;;7.63;6.93;;;12.80;99.90;;;;;;6195325;28;20372;-84
2021/10/13 07:34:50;;;;;;;8.25;6.72;;;13.50;99.90;;;;;;6162143;28;20020;-84
2021/10/13 07:37:50;;;;;;;8.52;7.72;;;14.40;99.90;;;;;;6195161;28;20022;-84
2021/10/13 07:40:52;;;;;;;8.05;6.78;;;;;;;;;;6162382;28;20030;-84
2021/10/13 07:43:52;;;;;;;8.32;6.65;;;14.90;99.90;;;;;;6195687;28;20043;-84
2021/10/13 07:46:53;;;;;;;7.65;6.95;;;14.80;99.90;;;;;;6162303;28;20037;-84
2021/10/13 07:49:53;;;;;;;11.50;7.05;;;14.50;99.90;;;;;;6178658;28;20489;-84
2021/10/13 07:52:54;;;;;;;8.70;6.78;;;14.70;99.90;;;;;;6178147;28;20428;-84
2021/10/13 07:55:55;;;;;;;7.07;6.38;;;14.70;99.90;;;;;;6177958;28;20030;-84
2021/10/13 07:58:55;;;;;;;8.48;6.45;;;15.30;99.90;;;;;;6161954;28;20026;-84
2021/10/13 08:01:56;;;;;;;6.82;6.13;;;;;;;;;;6194090;28;20464;-84
2021/10/13 08:04:57;;;;;;;8.32;6.35;;;16.00;99.90;;;;;;6194197;28;20345;-84
2021/10/13 08:07:57;;;;;;;8.63;6.80;;;16.10;99.90;;;;;;6177596;28;20030;-84
2021/10/13 08:10:58;;;;;;;8.68;6.65;;;16.40;99.90;;;;;;6194476;28;20431;-84
2021/10/13 08:13:59;;;;;;;6.10;5.40;;;16.50;99.90;;;;;;6161491;28;20084;-84
2021/10/13 08:17:01;;;;;;;7.70;5.78;;;16.90;99.80;;;;;;6177833;28;20136;-84
2021/10/13 08:20:03;;;;;;;6.05;4.90;;;17.20;98.00;;;;;;6177845;28;20365;-84
2021/10/13 08:23:04;;;;;;;7.43;4.75;;;17.40;96.10;;;;;;6193854;28;20449;-84
2021/10/13 08:26:04;;;;;;;5.30;4.30;;;17.80;94.40;;;;;;6161574;28;20062;-84
2021/10/13 08:29:05;;;;;;;7.72;3.90;;;17.90;93.80;;;;;;6177643;28;20030;-83
2021/10/13 08:32:06;;;;;;;6.85;3.63;;;17.70;92.10;;;;;;6193773;28;20045;-84
2021/10/13 08:35:07;;;;;;;5.68;4.40;;;17.90;90.10;;;;;;6177083;28;20481;-84
2021/10/13 08:38:07;;;;;;;5.97;4.10;;;17.90;91.00;;;;;;6177446;28;20069;-84
2021/10/13 08:41:08;;;;;;;5.00;3.40;;;18.40;91.30;;;;;;6176717;28;20026;-84
2021/10/13 08:44:15;;;;;;;3.13;2.63;;;18.50;86.80;;;;;;6161043;28;20069;-84
2021/10/13 08:47:15;;;;;;;4.22;3.13;;;18.40;83.50;;;;;;6177355;28;20038;-84
2021/10/13 08:50:16;;;;;;;3.85;3.20;;;18.90;80.60;;;;;;6176844;28;20104;-83
2021/10/13 08:53:20;;;;;;;2.92;2.40;;;18.70;77.20;;;;;;6177337;28;20029;-84
2021/10/13 08:56:22;;;;;;;6.60;3.95;;;19.10;76.10;;;;;;6161009;28;20035;-84
2021/10/13 08:59:39;;;;;;;6.07;2.53;;;19.60;76.60;;;;;;6176857;28;20026;-84
2021/10/13 09:02:45;;;;;;;4.32;2.90;;;19.80;72.60;;;;;;6176545;28;20033;-84
2021/10/13 09:05:45;;;;;;;3.40;2.40;;;19.60;72.20;;;;;;6177403;28;20069;-84
2021/10/13 09:09:21;;;;;;;3.50;2.50;;;19.80;69.80;;;;;;6176799;28;20030;-84
2021/10/13 09:12:29;;;;;;;6.40;4.28;;;19.60;69.80;;;;;;6150730;28;20421;-84
2021/10/13 09:15:30;;;;;;;2.97;2.60;;;20.00;67.50;;;;;;6134961;28;20031;-83
2021/10/13 09:18:31;;;;;;;3.45;2.20;;;19.90;68.10;;;;;;6150891;28;20082;-83
2021/10/13 09:22:02;;;;;;;4.53;2.75;;;19.30;85.70;;;;;;6150727;28;20051;-83
2021/10/13 09:25:03;;;;;;;3.25;2.60;;;19.10;68.20;;;;;;6151065;28;20106;-83
2021/10/13 09:28:04;;;;;;;3.50;2.70;;;18.70;70.00;;;;;;6150486;28;20043;-83
2021/10/13 09:31:15;;;;;;;4.10;2.40;;;18.60;70.00;;;;;;6134650;28;20027;-83
2021/10/13 09:34:16;;;;;;;3.20;2.40;;;18.60;69.50;;;;;;6170353;28;20137;-83
2021/10/13 09:37:16;;;;;;;3.30;2.40;;;19.40;71.40;;;;;;6139402;28;20480;-84
2021/10/13 09:40:43;;;;;;;4.10;2.65;;;19.60;68.30;;;;;;6155381;28;20480;-84
2021/10/13 09:43:44;;;;;;;3.03;2.42;;;19.30;68.50;;;;;;6153044;28;20042;-84
2021/10/13 09:46:44;;;;;;;3.60;2.45;;;18.40;68.80;;;;;;6174173;28;20050;-83
2021/10/13 09:49:48;;;;;;;5.60;3.00;;;18.00;71.50;;;;;;6165031;28;20022;-84
2021/10/13 09:52:49;;;;;;;4.63;2.63;;;17.70;75.50;;;;;;6164922;28;20649;-83
2021/10/13 09:55:50;;;;;;;3.72;2.45;;;17.50;73.80;;;;;;6181103;28;20034;-83
2021/10/13 09:58:50;;;;;;;2.58;2.20;;;17.90;86.70;;;;;;6180647;28;20030;-83
2021/10/13 10:01:57;;;;;;;3.35;2.40;;;17.90;70.70;;;;;;6180936;28;20054;-84
2021/10/13 10:05:03;;;;;;;3.10;2.40;;;18.20;67.40;;;;;;6197130;28;20038;-84
2021/10/13 10:08:09;;;;;;;2.33;2.00;;;18.60;68.40;;;;;;6180154;28;20066;-84
2021/10/13 10:11:09;;;;;;;4.03;2.17;;;19.10;66.00;;;;;;6180648;28;20046;-83
2021/10/13 10:14:32;;;;;;;5.88;2.50;;;19.50;66.00;;;;;;6164614;28;20478;-83
2021/10/13 10:17:39;;;;;;;;;;;19.80;60.70;;;;;;6198643;28;20401;-83
2021/10/13 10:20:40;;;;;;;3.63;3.10;;;20.00;72.30;;;;;;6164398;28;19901;-83
2021/10/13 10:23:41;;;;;;;4.15;3.33;;;20.40;72.10;;;;;;6196846;28;20124;-83
2021/10/13 10:26:42;;;;;;;5.28;3.65;;;20.50;71.00;;;;;;6164452;28;20026;-83
2021/10/13 10:29:42;;;;;;;4.55;3.30;;;20.20;70.50;;;;;;6164143;28;20589;-83
2021/10/13 10:33:15;;;;;;;6.00;3.25;;;20.30;70.40;;;;;;6196639;28;20388;-83
2021/10/13 10:36:15;;;;;;;;;;;20.10;70.10;;;;;;6177339;28;20245;-83
2021/10/13 10:39:17;;;;;;;5.88;4.28;;;20.10;71.80;;;;;;6180102;28;20364;-83
2021/10/13 10:43:00;;;;;;;4.22;2.88;;;20.00;70.20;;;;;;6163602;28;20027;-83
2021/10/13 10:46:00;;;;;;;4.07;2.67;;;19.50;68.60;;;;;;6134711;28;20054;-83
2021/10/13 10:49:01;;;;;;;3.35;3.03;;;19.10;72.40;;;;;;6179756;28;20030;-83
2021/10/13 10:52:02;;;;;;;4.43;3.20;;;18.90;73.90;;;;;;6179789;28;20104;-83
2021/10/13 10:55:07;;;;;;;6.57;4.43;;;18.30;75.70;;;;;;6195981;28;20041;-83
2021/10/13 10:58:27;;;;;;;6.53;3.35;;;18.00;75.10;;;;;;6195582;28;20030;-83
2021/10/13 11:01:28;;;;;;;6.07;3.13;;;17.50;75.20;;;;;;6195342;28;20033;-83
2021/10/13 11:04:28;;;;;;;4.97;3.35;;;16.70;92.50;;;;;;6179609;28;20381;-83
2021/10/13 11:07:29;;;;;;;5.82;3.17;;;;;;;;;;6195553;28;20125;-82
2021/10/13 11:10:30;;;;;;;6.65;4.50;;;16.30;96.70;;;;;;6195962;28;20389;-83
2021/10/13 11:13:31;;;;;;;4.85;3.45;;;;;;;;;;6179182;28;20153;-83
2021/10/13 11:16:33;;;;;;;2.97;2.50;;;;;;;;;;6179210;28;20022;-83
2021/10/13 11:19:34;;;;;;;3.93;2.60;;;17.20;79.80;;;;;;6195081;28;20473;-83
2021/10/13 11:22:35;;;;;;;4.03;2.90;;;17.20;80.00;;;;;;6179124;28;20739;-83
2021/10/13 11:25:39;;;;;;;3.65;2.72;;;17.30;82.00;;;;;;6178674;28;20339;-83
2021/10/13 11:28:40;;;;;;;5.90;2.60;;;17.70;79.00;;;;;;6195180;28;20376;-83
2021/10/13 11:31:41;;;;;;;3.47;2.33;;;17.80;83.00;;;;;;6178978;28;20396;-83
2021/10/13 11:34:43;;;;;;;4.60;3.13;;;18.10;80.30;;;;;;6179019;28;20096;-83
2021/10/13 11:37:53;;;;;;;2.70;2.25;;;18.20;78.40;;;;;;6178999;28;20026;-83
2021/10/13 11:40:56;;;;;;;3.08;1.85;;;18.60;78.20;;;;;;6162314;28;20030;-83
2021/10/13 11:43:56;;;;;;;2.83;2.10;;;18.60;80.10;;;;;;6177922;28;20137;-83
2021/10/13 11:46:59;;;;;;;2.72;1.90;;;18.20;78.90;;;;;;6178522;28;20039;-83
2021/10/13 11:50:09;;;;;;;2.83;2.05;;;17.60;77.70;;;;;;6178297;28;20045;-83
2021/10/13 11:53:10;;;;;;;8.00;2.38;;;17.00;79.00;;;;;;6177937;28;20050;-83
2021/10/13 11:56:11;;;;;;;6.47;3.03;;;16.50;82.20;;;;;;6177404;28;20105;-83
2021/10/13 11:59:12;;;;;;;4.40;2.63;;;16.10;83.80;;;;;;6194165;28;20058;-80
2021/10/13 12:02:15;;;;;;;4.28;2.50;;;15.70;86.80;;;;;;6177873;28;20452;-80
2021/10/13 12:05:15;;;;;;;5.53;2.40;;;15.40;87.90;;;;;;6178106;28;20460;-84
2021/10/13 12:08:17;;;;;;;3.33;2.60;;;15.20;87.60;;;;;;6194295;28;20030;-85
2021/10/13 12:11:21;;;;;;;2.60;2.35;;;14.90;88.40;;;;;;6162008;28;20092;-83
2021/10/13 12:14:21;;;;;;;3.75;2.60;;;14.70;88.70;;;;;;6178193;28;20049;-84
2021/10/13 12:17:24;;;;;;;4.63;2.70;;;14.50;90.00;;;;;;6194702;28;20042;-83
2021/10/13 12:20:25;;;;;;;4.63;2.38;;;14.40;90.10;;;;;;6161699;28;20022;-83
2021/10/13 12:23:25;;;;;;;3.30;2.72;;;14.20;90.90;;;;;;6177863;28;20436;-83
2021/10/13 12:26:28;;;;;;;5.80;2.70;;;14.60;92.10;;;;;;6161383;28;20037;-83
2021/10/13 12:29:38;;;;;;;3.85;2.40;;;15.20;91.60;;;;;;6194160;28;20069;-82
2021/10/13 12:32:38;;;;;;;2.70;2.20;;;15.60;90.50;;;;;;6175960;28;20050;-82
2021/10/13 12:35:39;;;;;;;3.65;2.33;;;16.00;88.00;;;;;;6177331;28;20174;-82
2021/10/13 12:38:46;;;;;;;4.78;2.60;;;16.50;88.10;;;;;;6177294;28;20053;-82
2021/10/13 12:41:47;;;;;;;5.38;2.17;;;16.60;87.40;;;;;;6177508;28;20088;-82
2021/10/13 12:44:48;;;;;;;2.75;2.20;;;16.60;99.90;;;;;;6176494;28;20404;-81
2021/10/13 12:47:48;;;;;;;6.57;3.10;;;16.30;99.90;;;;;;6177254;28;20130;-81
2021/10/13 12:51:08;;;;;;;6.05;3.10;;;15.10;94.90;;;;;;6176905;28;20045;-82
2021/10/13 12:54:09;;;;;;;5.95;2.63;;;;;;;;;;6177297;28;20042;-82
2021/10/13 12:57:12;;;;;;;4.28;2.72;;;14.60;95.20;;;;;;6177201;28;20110;-80
2021/10/13 13:00:12;;;;;;;2.90;2.20;;;14.50;99.90;;;;;;6176676;28;20476;-82
2021/10/13 13:03:13;;;;;;;4.60;2.95;;;;;;;;;;6176841;28;20034;-82
2021/10/13 13:06:14;;;;;;;4.20;2.67;;;14.30;95.70;;;;;;6176831;28;20491;-82
2021/10/13 13:09:15;;;;;;;16.15;4.13;;;14.30;95.30;;;;;;6191394;28;20023;-83
2021/10/13 13:12:15;;;;;;;5.80;3.30;;;14.40;93.00;;;;;;6192789;28;20076;-83
2021/10/13 13:15:16;;;;;;;4.70;2.70;;;14.50;93.10;;;;;;6193038;28;20480;-83
2021/10/13 13:18:20;;;;;;;5.13;3.10;;;14.80;93.70;;;;;;6193239;28;20080;-84
2021/10/13 13:21:21;;;;;;;4.97;3.10;;;15.20;93.80;;;;;;6176526;28;20125;-82
2021/10/13 13:24:22;;;;;;;4.38;2.88;;;15.50;92.40;;;;;;6160650;28;20041;-83
2021/10/13 13:27:22;;;;;;;7.22;4.28;;;15.60;91.40;;;;;;6160294;28;20024;-82
2021/10/13 13:30:23;;;;;;;4.25;3.13;;;15.70;92.10;;;;;;6176615;28;20473;-82
2021/10/13 13:33:23;;;;;;;3.10;2.38;;;15.80;91.20;;;;;;6176744;28;20042;-83
2021/10/13 13:36:24;;;;;;;3.97;2.45;;;15.40;90.10;;;;;;6193014;28;20034;-82
2021/10/13 13:39:25;;;;;;;5.05;2.90;;;15.80;89.00;;;;;;6192384;28;20029;-84
2021/10/13 13:42:26;;;;;;;34.40;21.52;;;;;;;;;;6160628;28;20471;-82
2021/10/13 13:45:26;;;;;;;61.10;29.48;;;15.50;86.50;;;;;;6176493;28;20058;-83
2021/10/13 13:48:30;;;;;;;123.85;55.15;;;15.30;90.50;;;;;;6176592;28;20045;-83
2021/10/13 13:51:30;;;;;;;82.95;40.65;;;15.20;89.80;;;;;;6176534;28;20053;-83
2021/10/13 13:54:31;;;;;;;4.82;3.22;;;15.20;91.00;;;;;;6192812;28;20149;-83
2021/10/13 13:57:32;;;;;;;4.70;2.60;;;15.10;90.80;;;;;;6192528;28;20042;-82
2021/10/13 14:00:32;;;;;;;3.30;2.40;;;14.90;90.40;;;;;;6159773;28;20646;-84
2021/10/13 14:03:33;;;;;;;3.05;2.30;;;14.90;90.00;;;;;;6176913;28;20484;-82
2021/10/13 14:06:33;;;;;;;3.95;2.45;;;14.90;89.80;;;;;;6192293;28;20042;-83
2021/10/13 14:09:34;;;;;;;4.75;2.75;;;15.00;90.00;;;;;;6176769;28;20034;-82
2021/10/13 14:12:35;;;;;;;4.55;3.10;;;14.90;90.30;;;;;;6176335;28;20045;-83
2021/10/13 14:15:36;;;;;;;4.80;2.78;;;14.70;90.80;;;;;;6176330;28;20037;-82
2021/10/13 14:18:37;;;;;;;8.43;2.42;;;14.50;91.30;;;;;;6177200;28;20027;-83
2021/10/13 14:21:37;;;;;;;3.95;2.60;;;14.20;91.30;;;;;;6195359;28;20038;-84
2021/10/13 14:24:38;;;;;;;5.05;2.80;;;14.60;91.30;;;;;;6164563;28;20368;-85
2021/10/13 14:27:38;;;;;;;4.07;2.60;;;13.70;91.80;;;;;;6196637;28;20030;-85
2021/10/13 14:30:39;;;;;;;3.47;2.75;;;;;;;;;;6180526;28;20366;-85
2021/10/13 14:33:40;;;;;;;3.00;2.70;;;13.40;90.10;;;;;;6196741;28;20135;-84
2021/10/13 14:36:41;;;;;;;3.45;2.40;;;;;;;;;;6180489;28;20026;-85
2021/10/13 14:39:43;;;;;;;4.53;2.55;;;13.30;91.40;;;;;;6180000;28;20022;-85
2021/10/13 14:42:44;;;;;;;2.47;2.28;;;;;;;;;;6164214;28;20045;-86
2021/10/13 14:45:45;;;;;;;3.25;2.30;;;;;;;;;;6180325;28;20038;-85
2021/10/13 14:48:46;;;;;;;3.58;2.75;;;;;;;;;;6180935;28;20445;-87
2021/10/13 14:51:47;;;;;;;2.78;2.30;;;13.60;91.60;;;;;;6180208;28;20027;-86
2021/10/13 14:54:48;;;;;;;5.40;2.40;;;;;;;;;;6163485;28;20145;-86
2021/10/13 14:57:48;;;;;;;6.25;2.60;;;13.80;99.90;;;;;;6196279;28;20428;-88
2021/10/13 15:00:50;;;;;;;5.75;2.53;;;;;;;;;;6179147;28;20039;-86
2021/10/13 15:03:50;;;;;;;5.25;2.60;;;13.00;91.80;;;;;;6195958;28;20015;-83
2021/10/13 15:06:52;;;;;;;4.45;2.65;;;;;;;;;;6179732;28;20069;-85
2021/10/13 15:09:52;;;;;;;4.10;2.70;;;13.20;93.70;;;;;;6179499;28;20578;-84
2021/10/13 15:12:53;;;;;;;3.15;2.53;;;13.20;95.90;;;;;;6179038;28;20066;-85
2021/10/13 15:15:53;;;;;;;3.92;2.53;;;13.10;96.40;;;;;;6195130;28;20022;-83
2021/10/13 15:18:56;;;;;;;3.80;2.50;;;;;;;;;;6163226;28;20022;-83
2021/10/13 15:22:05;;;;;;;3.80;2.30;;;12.80;94.40;;;;;;6178816;28;20500;-85
2021/10/13 15:25:06;;;;;;;3.85;2.33;;;12.80;99.90;;;;;;6195291;28;20058;-80
2021/10/13 15:28:08;;;;;;;3.42;2.30;;;;;;;;;;6195048;28;20022;-83
2021/10/13 15:31:08;;;;;;;4.75;2.85;;;12.60;97.20;;;;;;6194651;28;20068;-84
2021/10/13 15:34:09;;;;;;;4.25;2.70;;;12.60;98.50;;;;;;6162595;28;20050;-89
2021/10/13 15:37:13;;;;;;;4.55;2.60;;;12.40;98.20;;;;;;6179056;28;20030;-85
2021/10/13 15:40:13;;;;;;;4.80;2.58;;;12.60;98.70;;;;;;6162715;28;20026;-87
2021/10/13 15:43:15;;;;;;;3.95;2.90;;;12.20;99.90;;;;;;6179002;28;20088;-85
2021/10/13 15:46:16;;;;;;;2.60;2.40;;;12.30;97.40;;;;;;6179819;28;20049;-83
2021/10/13 15:49:17;;;;;;;4.20;2.80;;;;;;;;;;6179889;28;20030;-86
2021/10/13 15:52:18;;;;;;;3.05;2.65;;;;;;;;;;6179098;28;20057;-87
2021/10/13 15:55:22;;;;;;;4.88;2.78;;;11.90;97.00;;;;;;6179283;28;20033;-88
2021/10/13 15:58:22;;;;;;;3.28;2.50;;;11.80;99.70;;;;;;6178414;28;20081;-89
2021/10/13 16:01:23;;;;;;;3.13;2.50;;;;;;;;;;6161603;28;20023;-87
2021/10/13 16:04:25;;;;;;;4.85;2.83;;;11.60;98.40;;;;;;6175248;28;20030;-86
2021/10/13 16:07:26;;;;;;;4.65;3.08;;;;;;;;;;6176709;28;20485;-85
2021/10/13 16:10:27;;;;;;;3.58;2.55;;;;;;;;;;6177602;28;20042;-86
2021/10/13 16:13:28;;;;;;;4.15;2.83;;;11.40;99.40;;;;;;6178361;28;20035;-88
2021/10/13 16:16:29;;;;;;;4.68;2.97;;;;;;;;;;6161852;28;20034;-86